sensor_id;sensor_type;location;lat;lon;timestamp;pressure;altitude;pressure_sealevel;temperature;humidity
43745;BME280;29359;53.048;8.732;2023-08-01T00:01:33;99881.25;;;16.63;100.00
43745;BME280;29359;53.048;8.732;2023-08-01T00:03:36;99863.47;;;16.63;100.00
43745;BME280;29359;53.048;8.732;2023-08-01T00:05:39;99858.13;;;16.63;100.00
43745;BME280;29359;53.048;8.732;2023-08-01T00:07:46;99853.75;;;16.62;100.00
43745;BME280;29359;53.048;8.732;2023-08-01T00:09:48;99852.81;;;16.63;100.00
43745;BME280;29359;53.048;8.732;2023-08-01T00:11:51;99848.44;;;16.62;100.00
43745;BME280;29359;53.048;8.732;2023-08-01T00:13:55;99847.69;;;16.60;100.00
43745;BME280;29359;53.048;8.732;2023-08-01T00:15:58;99846.94;;;16.58;100.00
43745;BME280;29359;53.048;8.732;2023-08-01T00:18:08;99847.91;;;16.57;100.00
43745;BME280;29359;53.048;8.732;2023-08-01T00:20:11;99842.69;;;16.56;100.00
43745;BME280;29359;53.048;8.732;2023-08-01T00:22:14;99843.63;;;16.55;100.00
43745;BME280;29359;53.048;8.732;2023-08-01T00:24:17;99841.94;;;16.54;100.00
43745;BME280;29359;53.048;8.732;2023-08-01T00:26:20;99823.28;;;16.54;100.00
43745;BME280;29359;53.048;8.732;2023-08-01T00:28:22;99824.03;;;16.56;100.00
43745;BME280;29359;53.048;8.732;2023-08-01T00:30:27;99823.16;;;16.55;100.00
43745;BME280;29359;53.048;8.732;2023-08-01T00:32:29;99817.94;;;16.54;100.00
43745;BME280;29359;53.048;8.732;2023-08-01T00:34:32;99814.44;;;16.53;100.00
43745;BME280;29359;53.048;8.732;2023-08-01T00:36:34;99813.59;;;16.53;100.00
43745;BME280;29359;53.048;8.732;2023-08-01T00:38:37;99813.69;;;16.51;100.00
43745;BME280;29359;53.048;8.732;2023-08-01T00:40:40;99811.13;;;16.50;100.00
43745;BME280;29359;53.048;8.732;2023-08-01T00:42:42;99809.41;;;16.49;100.00
43745;BME280;29359;53.048;8.732;2023-08-01T00:44:45;99808.56;;;16.48;100.00
43745;BME280;29359;53.048;8.732;2023-08-01T00:46:51;99798.94;;;16.46;100.00
43745;BME280;29359;53.048;8.732;2023-08-01T00:48:54;99799.81;;;16.46;100.00
43745;BME280;29359;53.048;8.732;2023-08-01T00:51:01;99794.69;;;16.43;100.00
43745;BME280;29359;53.048;8.732;2023-08-01T00:53:05;99789.34;;;16.43;100.00
43745;BME280;29359;53.048;8.732;2023-08-01T00:55:08;99791.16;;;16.43;100.00
43745;BME280;29359;53.048;8.732;2023-08-01T00:57:11;99792.03;;;16.43;100.00
43745;BME280;29359;53.048;8.732;2023-08-01T00:59:15;99788.50;;;16.43;100.00
43745;BME280;29359;53.048;8.732;2023-08-01T01:01:18;99787.75;;;16.41;100.00
43745;BME280;29359;53.048;8.732;2023-08-01T01:03:21;99779.03;;;16.39;100.00
43745;BME280;29359;53.048;8.732;2023-08-01T01:05:25;99783.50;;;16.38;100.00
43745;BME280;29359;53.048;8.732;2023-08-01T01:07:30;99783.50;;;16.38;100.00
43745;BME280;29359;53.048;8.732;2023-08-01T01:09:34;99773.91;;;16.36;100.00
43745;BME280;29359;53.048;8.732;2023-08-01T01:11:36;99760.81;;;16.32;100.00
43745;BME280;29359;53.048;8.732;2023-08-01T01:13:39;99762.59;;;16.32;100.00
43745;BME280;29359;53.048;8.732;2023-08-01T01:15:42;99756.53;;;16.30;100.00
43745;BME280;29359;53.048;8.732;2023-08-01T01:17:45;99754.84;;;16.29;100.00
43745;BME280;29359;53.048;8.732;2023-08-01T01:19:49;99756.66;;;16.28;100.00
43745;BME280;29359;53.048;8.732;2023-08-01T01:21:53;99766.34;;;16.29;100.00
43745;BME280;29359;53.048;8.732;2023-08-01T01:23:57;99758.44;;;16.28;100.00
43745;BME280;29359;53.048;8.732;2023-08-01T01:26:01;99755.78;;;16.28;100.00
43745;BME280;29359;53.048;8.732;2023-08-01T01:28:05;99757.59;;;16.27;100.00
43745;BME280;29359;53.048;8.732;2023-08-01T01:30:10;99755.78;;;16.28;100.00
43745;BME280;29359;53.048;8.732;2023-08-01T01:32:13;99753.13;;;16.28;100.00
43745;BME280;29359;53.048;8.732;2023-08-01T01:34:16;99746.84;;;16.29;100.00
43745;BME280;29359;53.048;8.732;2023-08-01T01:36:19;99752.16;;;16.29;100.00
43745;BME280;29359;53.048;8.732;2023-08-01T01:38:23;99753.97;;;16.28;100.00
43745;BME280;29359;53.048;8.732;2023-08-01T01:40:26;99752.28;;;16.27;100.00
43745;BME280;29359;53.048;8.732;2023-08-01T01:42:29;99747.91;;;16.26;100.00
43745;BME280;29359;53.048;8.732;2023-08-01T01:44:31;99751.41;;;16.27;100.00
43745;BME280;29359;53.048;8.732;2023-08-01T01:46:34;99753.22;;;16.26;100.00
43745;BME280;29359;53.048;8.732;2023-08-01T01:48:36;99750.56;;;16.26;100.00
43745;BME280;29359;53.048;8.732;2023-08-01T01:50:39;99744.28;;;16.27;100.00
43745;BME280;29359;53.048;8.732;2023-08-01T01:52:42;99731.94;;;16.26;100.00
43745;BME280;29359;53.048;8.732;2023-08-01T01:54:46;99739.06;;;16.26;100.00
43745;BME280;29359;53.048;8.732;2023-08-01T01:56:49;99738.22;;;16.25;100.00
43745;BME280;29359;53.048;8.732;2023-08-01T01:58:52;99740.88;;;16.25;100.00
43745;BME280;29359;53.048;8.732;2023-08-01T02:00:54;99732.03;;;16.25;100.00
43745;BME280;29359;53.048;8.732;2023-08-01T02:02:57;99726.81;;;16.23;100.00
43745;BME280;29359;53.048;8.732;2023-08-01T02:05:00;99724.16;;;16.23;100.00
43745;BME280;29359;53.048;8.732;2023-08-01T02:07:03;99719.78;;;16.22;100.00
43745;BME280;29359;53.048;8.732;2023-08-01T02:09:06;99731.28;;;16.23;100.00
43745;BME280;29359;53.048;8.732;2023-08-01T02:11:10;99726.06;;;16.21;100.00
43745;BME280;29359;53.048;8.732;2023-08-01T02:13:13;99718.19;;;16.20;100.00
43745;BME280;29359;53.048;8.732;2023-08-01T02:15:16;99716.38;;;16.20;100.00
43745;BME280;29359;53.048;8.732;2023-08-01T02:17:19;99708.38;;;16.20;100.00
43745;BME280;29359;53.048;8.732;2023-08-01T02:19:22;99702.00;;;16.23;100.00
43745;BME280;29359;53.048;8.732;2023-08-01T02:21:24;99702.94;;;16.22;100.00
43745;BME280;29359;53.048;8.732;2023-08-01T02:23:27;99695.91;;;16.21;100.00
43745;BME280;29359;53.048;8.732;2023-08-01T02:25:30;99695.91;;;16.21;100.00
43745;BME280;29359;53.048;8.732;2023-08-01T02:27:34;99692.50;;;16.19;100.00
43745;BME280;29359;53.048;8.732;2023-08-01T02:29:36;99691.78;;;16.17;100.00
43745;BME280;29359;53.048;8.732;2023-08-01T02:31:39;99685.59;;;16.16;100.00
43745;BME280;29359;53.048;8.732;2023-08-01T02:33:42;99689.09;;;16.17;100.00
43745;BME280;29359;53.048;8.732;2023-08-01T02:35:46;99683.78;;;16.17;100.00
43745;BME280;29359;53.048;8.732;2023-08-01T02:37:49;99686.44;;;16.17;100.00
43745;BME280;29359;53.048;8.732;2023-08-01T02:39:52;99685.47;;;16.18;100.00
43745;BME280;29359;53.048;8.732;2023-08-01T02:41:54;99677.59;;;16.16;100.00
43745;BME280;29359;53.048;8.732;2023-08-01T02:43:58;99670.47;;;16.17;100.00
43745;BME280;29359;53.048;8.732;2023-08-01T02:46:00;99673.25;;;16.15;100.00
43745;BME280;29359;53.048;8.732;2023-08-01T02:48:03;99674.94;;;16.16;100.00
43745;BME280;29359;53.048;8.732;2023-08-01T02:50:07;99670.34;;;16.18;100.00
43745;BME280;29359;53.048;8.732;2023-08-01T02:52:10;99666.84;;;16.18;100.00
43745;BME280;29359;53.048;8.732;2023-08-01T02:54:13;99664.19;;;16.18;100.00
43745;BME280;29359;53.048;8.732;2023-08-01T02:56:16;99663.34;;;16.17;100.00
43745;BME280;29359;53.048;8.732;2023-08-01T02:58:18;99659.81;;;16.17;100.00
43745;BME280;29359;53.048;8.732;2023-08-01T03:00:23;99658.13;;;16.16;100.00
43745;BME280;29359;53.048;8.732;2023-08-01T03:02:26;99651.94;;;16.15;100.00
43745;BME280;29359;53.048;8.732;2023-08-01T03:04:29;99664.41;;;16.15;100.00
43745;BME280;29359;53.048;8.732;2023-08-01T03:06:46;99662.69;;;16.14;100.00
43745;BME280;29359;53.048;8.732;2023-08-01T03:08:49;99659.28;;;16.12;100.00
43745;BME280;29359;53.048;8.732;2023-08-01T03:10:53;99653.97;;;16.12;100.00
43745;BME280;29359;53.048;8.732;2023-08-01T03:12:56;99652.16;;;16.12;100.00
43745;BME280;29359;53.048;8.732;2023-08-01T03:14:59;99649.59;;;16.11;100.00
43745;BME280;29359;53.048;8.732;2023-08-01T03:17:03;99650.56;;;16.10;100.00
43745;BME280;29359;53.048;8.732;2023-08-01T03:19:06;99654.19;;;16.09;100.00
43745;BME280;29359;53.048;8.732;2023-08-01T03:21:10;99644.38;;;16.09;100.00
43745;BME280;29359;53.048;8.732;2023-08-01T03:23:13;99645.22;;;16.10;100.00
43745;BME280;29359;53.048;8.732;2023-08-01T03:25:16;99640.13;;;16.07;100.00
43745;BME280;29359;53.048;8.732;2023-08-01T03:27:18;99641.09;;;16.06;100.00
43745;BME280;29359;53.048;8.732;2023-08-01T03:29:21;99646.69;;;16.01;100.00
43745;BME280;29359;53.048;8.732;2023-08-01T03:31:24;99644.13;;;15.99;100.00
43745;BME280;29359;53.048;8.732;2023-08-01T03:33:28;99647.75;;;15.98;100.00
43745;BME280;29359;53.048;8.732;2023-08-01T03:35:31;99646.38;;;15.93;100.00
43745;BME280;29359;53.048;8.732;2023-08-01T03:37:34;99655.44;;;15.90;100.00
43745;BME280;29359;53.048;8.732;2023-08-01T03:39:37;99649.25;;;15.90;100.00
43745;BME280;29359;53.048;8.732;2023-08-01T03:41:40;99655.53;;;15.89;100.00
43745;BME280;29359;53.048;8.732;2023-08-01T03:43:43;99660.00;;;15.88;100.00
43745;BME280;29359;53.048;8.732;2023-08-01T03:45:45;99661.81;;;15.88;100.00
43745;BME280;29359;53.048;8.732;2023-08-01T03:47:48;99657.25;;;15.90;100.00
43745;BME280;29359;53.048;8.732;2023-08-01T03:49:52;99664.25;;;15.91;100.00
43745;BME280;29359;53.048;8.732;2023-08-01T03:51:55;99658.84;;;15.92;100.00
43745;BME280;29359;53.048;8.732;2023-08-01T03:54:01;99659.78;;;15.91;100.00
43745;BME280;29359;53.048;8.732;2023-08-01T03:56:14;99665.13;;;15.91;100.00
43745;BME280;29359;53.048;8.732;2023-08-01T03:58:17;99667.78;;;15.91;100.00
43745;BME280;29359;53.048;8.732;2023-08-01T04:00:20;99659.78;;;15.91;100.00
43745;BME280;29359;53.048;8.732;2023-08-01T04:02:22;99663.31;;;15.92;100.00
43745;BME280;29359;53.048;8.732;2023-08-01T04:04:26;99665.97;;;15.92;100.00
43745;BME280;29359;53.048;8.732;2023-08-01T04:06:31;99661.59;;;15.91;100.00
43745;BME280;29359;53.048;8.732;2023-08-01T04:08:33;99651.91;;;15.90;100.00
43745;BME280;29359;53.048;8.732;2023-08-01T04:10:36;99657.13;;;15.91;100.00
43745;BME280;29359;53.048;8.732;2023-08-01T04:12:39;99651.91;;;15.90;100.00
43745;BME280;29359;53.048;8.732;2023-08-01T04:14:41;99655.44;;;15.90;100.00
43745;BME280;29359;53.048;8.732;2023-08-01T04:16:44;99660.75;;;15.90;100.00
43745;BME280;29359;53.048;8.732;2023-08-01T04:18:46;99662.56;;;15.90;100.00
43745;BME280;29359;53.048;8.732;2023-08-01T04:20:48;99656.38;;;15.89;100.00
43745;BME280;29359;53.048;8.732;2023-08-01T04:22:53;99668.00;;;15.88;100.00
43745;BME280;29359;53.048;8.732;2023-08-01T04:24:55;99658.19;;;15.89;100.00
43745;BME280;29359;53.048;8.732;2023-08-01T04:26:57;99654.69;;;15.88;100.00
43745;BME280;29359;53.048;8.732;2023-08-01T04:29:00;99663.63;;;15.87;100.00
43745;BME280;29359;53.048;8.732;2023-08-01T04:31:03;99657.44;;;15.87;100.00
43745;BME280;29359;53.048;8.732;2023-08-01T04:33:05;99661.81;;;15.88;100.00
43745;BME280;29359;53.048;8.732;2023-08-01T04:35:08;99661.72;;;15.89;100.00
43745;BME280;29359;53.048;8.732;2023-08-01T04:37:11;99666.06;;;15.90;100.00
43745;BME280;29359;53.048;8.732;2023-08-01T04:39:15;99661.81;;;15.88;100.00
43745;BME280;29359;53.048;8.732;2023-08-01T04:41:18;99663.63;;;15.87;100.00
43745;BME280;29359;53.048;8.732;2023-08-01T04:43:20;99668.84;;;15.89;100.00
43745;BME280;29359;53.048;8.732;2023-08-01T04:45:22;99664.69;;;15.85;100.00
43745;BME280;29359;53.048;8.732;2023-08-01T04:47:25;99669.47;;;15.80;100.00
43745;BME280;29359;53.048;8.732;2023-08-01T04:49:28;99682.13;;;15.76;100.00
43745;BME280;29359;53.048;8.732;2023-08-01T04:51:31;99679.16;;;15.68;100.00
43745;BME280;29359;53.048;8.732;2023-08-01T04:53:33;99681.44;;;15.60;100.00
43745;BME280;29359;53.048;8.732;2023-08-01T04:55:38;99681.81;;;15.54;100.00
43745;BME280;29359;53.048;8.732;2023-08-01T04:57:40;99676.06;;;15.47;100.00
43745;BME280;29359;53.048;8.732;2023-08-01T04:59:44;99677.22;;;15.43;100.00
43745;BME280;29359;53.048;8.732;2023-08-01T05:01:47;99678.06;;;15.44;100.00
43745;BME280;29359;53.048;8.732;2023-08-01T05:03:49;99681.69;;;15.43;100.00
43745;BME280;29359;53.048;8.732;2023-08-01T05:05:52;99688.06;;;15.40;100.00
43745;BME280;29359;53.048;8.732;2023-08-01T05:07:55;99683.06;;;15.35;100.00
43745;BME280;29359;53.048;8.732;2023-08-01T05:09:58;99668.47;;;15.28;100.00
43745;BME280;29359;53.048;8.732;2023-08-01T05:12:02;99664.00;;;15.29;100.00
43745;BME280;29359;53.048;8.732;2023-08-01T05:14:05;99658.56;;;15.30;100.00
43745;BME280;29359;53.048;8.732;2023-08-01T05:16:08;99666.56;;;15.30;100.00
43745;BME280;29359;53.048;8.732;2023-08-01T05:18:11;99668.47;;;15.28;100.00
43745;BME280;29359;53.048;8.732;2023-08-01T05:20:12;99661.44;;;15.27;100.00
43745;BME280;29359;53.048;8.732;2023-08-01T05:22:15;99666.88;;;15.26;100.00
43745;BME280;29359;53.048;8.732;2023-08-01T05:24:18;99655.16;;;15.28;100.00
43745;BME280;29359;53.048;8.732;2023-08-01T05:26:21;99663.69;;;15.33;100.00
43745;BME280;29359;53.048;8.732;2023-08-01T05:28:25;99668.69;;;15.38;100.00
43745;BME280;29359;53.048;8.732;2023-08-01T05:30:27;99659.56;;;15.42;100.00
43745;BME280;29359;53.048;8.732;2023-08-01T05:32:30;99656.81;;;15.44;100.00
43745;BME280;29359;53.048;8.732;2023-08-01T05:34:33;99652.22;;;15.46;100.00
43745;BME280;29359;53.048;8.732;2023-08-01T05:36:36;99643.41;;;15.45;100.00
43745;BME280;29359;53.048;8.732;2023-08-01T05:38:39;99644.25;;;15.46;100.00
43745;BME280;29359;53.048;8.732;2023-08-01T05:40:42;99651.38;;;15.45;100.00
43745;BME280;29359;53.048;8.732;2023-08-01T05:42:45;99652.34;;;15.44;100.00
43745;BME280;29359;53.048;8.732;2023-08-01T05:44:49;99660.22;;;15.46;100.00
43745;BME280;29359;53.048;8.732;2023-08-01T05:46:52;99655.63;;;15.48;100.00
43745;BME280;29359;53.048;8.732;2023-08-01T05:48:55;99656.19;;;15.53;100.00
43745;BME280;29359;53.048;8.732;2023-08-01T05:50:58;99666.63;;;15.56;100.00
43745;BME280;29359;53.048;8.732;2023-08-01T05:53:00;99665.59;;;15.58;100.00
43745;BME280;29359;53.048;8.732;2023-08-01T05:55:04;99669.00;;;15.60;100.00
43745;BME280;29359;53.048;8.732;2023-08-01T05:57:07;99673.38;;;15.61;100.00
43745;BME280;29359;53.048;8.732;2023-08-01T05:59:10;99673.09;;;15.66;100.00
43745;BME280;29359;53.048;8.732;2023-08-01T06:01:13;99677.34;;;15.68;100.00
43745;BME280;29359;53.048;8.732;2023-08-01T06:03:16;99683.41;;;15.70;100.00
43745;BME280;29359;53.048;8.732;2023-08-01T06:05:19;99676.81;;;15.76;100.00
43745;BME280;29359;53.048;8.732;2023-08-01T06:07:22;99666.91;;;15.78;100.00
43745;BME280;29359;53.048;8.732;2023-08-01T06:09:25;99671.94;;;15.83;100.00
43745;BME280;29359;53.048;8.732;2023-08-01T06:11:27;99671.81;;;15.84;100.00
43745;BME280;29359;53.048;8.732;2023-08-01T06:13:30;99682.16;;;15.89;100.00
43745;BME280;29359;53.048;8.732;2023-08-01T06:15:32;99675.75;;;15.91;100.00
43745;BME280;29359;53.048;8.732;2023-08-01T06:17:36;99675.88;;;15.90;100.00
43745;BME280;29359;53.048;8.732;2023-08-01T06:19:38;99688.22;;;15.91;100.00
43745;BME280;29359;53.048;8.732;2023-08-01T06:21:41;99689.06;;;15.91;100.00
43745;BME280;29359;53.048;8.732;2023-08-01T06:23:44;99684.50;;;15.93;100.00
43745;BME280;29359;53.048;8.732;2023-08-01T06:25:47;99678.97;;;15.96;100.00
43745;BME280;29359;53.048;8.732;2023-08-01T06:27:50;99693.66;;;16.02;100.00
43745;BME280;29359;53.048;8.732;2023-08-01T06:29:54;99689.97;;;16.05;100.00
43745;BME280;29359;53.048;8.732;2023-08-01T06:31:57;99692.41;;;16.08;100.00
43745;BME280;29359;53.048;8.732;2023-08-01T06:34:01;99700.19;;;16.11;100.00
43745;BME280;29359;53.048;8.732;2023-08-01T06:36:05;99692.84;;;16.14;100.00
43745;BME280;29359;53.048;8.732;2023-08-01T06:38:08;99692.50;;;16.19;100.00
43745;BME280;29359;53.048;8.732;2023-08-01T06:40:12;99699.31;;;16.23;100.00
43745;BME280;29359;53.048;8.732;2023-08-01T06:42:15;99695.38;;;16.28;100.00
43745;BME280;29359;53.048;8.732;2023-08-01T06:44:18;99696.66;;;16.36;100.00
43745;BME280;29359;53.048;8.732;2023-08-01T06:46:21;99695.38;;;16.41;100.00
43745;BME280;29359;53.048;8.732;2023-08-01T06:48:24;99703.81;;;16.48;100.00
43745;BME280;29359;53.048;8.732;2023-08-01T06:50:28;99699.22;;;16.50;100.00
43745;BME280;29359;53.048;8.732;2023-08-01T06:52:31;99694.75;;;16.50;100.00
43745;BME280;29359;53.048;8.732;2023-08-01T06:54:33;99697.59;;;16.47;100.00
43745;BME280;29359;53.048;8.732;2023-08-01T06:56:39;99704.22;;;16.42;100.00
43745;BME280;29359;53.048;8.732;2023-08-01T06:58:41;99703.56;;;16.38;100.00
43745;BME280;29359;53.048;8.732;2023-08-01T07:00:44;99700.28;;;16.34;100.00
43745;BME280;29359;53.048;8.732;2023-08-01T07:02:47;99700.28;;;16.34;100.00
43745;BME280;29359;53.048;8.732;2023-08-01T07:04:50;99698.88;;;16.42;100.00
43745;BME280;29359;53.048;8.732;2023-08-01T07:06:54;99703.38;;;16.41;100.00
43745;BME280;29359;53.048;8.732;2023-08-01T07:08:57;99709.66;;;16.40;100.00
43745;BME280;29359;53.048;8.732;2023-08-01T07:11:00;99701.88;;;16.37;100.00
43745;BME280;29359;53.048;8.732;2023-08-01T07:13:03;99708.69;;;16.41;100.00
43745;BME280;29359;53.048;8.732;2023-08-01T07:15:08;99715.72;;;16.42;100.00
43745;BME280;29359;53.048;8.732;2023-08-01T07:17:13;99720.72;;;16.47;100.00
43745;BME280;29359;53.048;8.732;2023-08-01T07:19:16;99723.09;;;16.51;100.00
43745;BME280;29359;53.048;8.732;2023-08-01T07:21:19;99722.88;;;16.54;100.00
43745;BME280;29359;53.048;8.732;2023-08-01T07:23:23;99718.72;;;16.50;100.00
43745;BME280;29359;53.048;8.732;2023-08-01T07:25:26;99727.13;;;16.44;100.00
43745;BME280;29359;53.048;8.732;2023-08-01T07:27:29;99723.81;;;16.41;100.00
43745;BME280;29359;53.048;8.732;2023-08-01T07:29:31;99719.88;;;16.33;100.00
43745;BME280;29359;53.048;8.732;2023-08-01T07:31:34;99714.56;;;16.33;100.00
43745;BME280;29359;53.048;8.732;2023-08-01T07:33:36;99716.38;;;16.33;100.00
43745;BME280;29359;53.048;8.732;2023-08-01T07:35:39;99718.19;;;16.32;100.00
43745;BME280;29359;53.048;8.732;2023-08-01T07:37:42;99723.41;;;16.34;100.00
43745;BME280;29359;53.048;8.732;2023-08-01T07:39:46;99719.56;;;16.38;100.00
43745;BME280;29359;53.048;8.732;2023-08-01T07:41:48;99719.88;;;16.46;100.00
43745;BME280;29359;53.048;8.732;2023-08-01T07:43:51;99721.28;;;16.52;100.00
43745;BME280;29359;53.048;8.732;2023-08-01T07:45:55;99722.88;;;16.54;100.00
43745;BME280;29359;53.048;8.732;2023-08-01T07:47:58;99724.47;;;16.57;100.00
43745;BME280;29359;53.048;8.732;2023-08-01T07:50:01;99725.13;;;16.60;100.00
43745;BME280;29359;53.048;8.732;2023-08-01T07:52:05;99715.94;;;16.64;100.00
43745;BME280;29359;53.048;8.732;2023-08-01T07:54:12;99718.19;;;16.71;100.00
43745;BME280;29359;53.048;8.732;2023-08-01T07:56:16;99713.38;;;16.76;100.00
43745;BME280;29359;53.048;8.732;2023-08-01T07:58:19;99715.09;;;16.77;100.00
43745;BME280;29359;53.048;8.732;2023-08-01T08:00:22;99718.09;;;16.72;99.97
43745;BME280;29359;53.048;8.732;2023-08-01T08:02:24;99717.22;;;16.72;99.46
43745;BME280;29359;53.048;8.732;2023-08-01T08:04:27;99720.41;;;16.77;100.00
43745;BME280;29359;53.048;8.732;2023-08-01T08:06:30;99718.38;;;16.80;100.00
43745;BME280;29359;53.048;8.732;2023-08-01T08:08:33;99726.03;;;16.98;100.00
43745;BME280;29359;53.048;8.732;2023-08-01T08:10:38;99732.75;;;17.03;100.00
43745;BME280;29359;53.048;8.732;2023-08-01T08:12:45;99723.91;;;17.03;98.18
43745;BME280;29359;53.048;8.732;2023-08-01T08:14:48;99725.59;;;17.04;97.91
43745;BME280;29359;53.048;8.732;2023-08-01T08:16:51;99728.03;;;17.07;97.54
43745;BME280;29359;53.048;8.732;2023-08-01T08:18:54;99720.78;;;17.09;97.80
43745;BME280;29359;53.048;8.732;2023-08-01T08:20:57;99723.44;;;17.09;98.19
43745;BME280;29359;53.048;8.732;2023-08-01T08:22:59;99725.91;;;17.12;98.64
43745;BME280;29359;53.048;8.732;2023-08-01T08:25:02;99732.06;;;17.12;99.19
43745;BME280;29359;53.048;8.732;2023-08-01T08:27:05;99727.47;;;17.14;98.67
43745;BME280;29359;53.048;8.732;2023-08-01T08:29:09;99737.94;;;17.17;97.30
43745;BME280;29359;53.048;8.732;2023-08-01T08:31:11;99729.19;;;17.15;95.47
43745;BME280;29359;53.048;8.732;2023-08-01T08:33:19;99725.56;;;17.16;95.77
43745;BME280;29359;53.048;8.732;2023-08-01T08:35:22;99723.28;;;17.23;95.53
43745;BME280;29359;53.048;8.732;2023-08-01T08:37:25;99722.41;;;17.35;96.21
43745;BME280;29359;53.048;8.732;2023-08-01T08:39:28;99723.78;;;17.41;95.58
43745;BME280;29359;53.048;8.732;2023-08-01T08:41:35;99716.50;;;17.43;95.52
43745;BME280;29359;53.048;8.732;2023-08-01T08:43:39;99718.50;;;17.52;95.19
43745;BME280;29359;53.048;8.732;2023-08-01T08:45:45;99717.16;;;17.57;94.27
43745;BME280;29359;53.048;8.732;2023-08-01T08:47:55;99720.59;;;17.59;94.40
43745;BME280;29359;53.048;8.732;2023-08-01T08:49:58;99721.09;;;17.65;95.17
43745;BME280;29359;53.048;8.732;2023-08-01T08:52:01;99724.69;;;17.76;95.05
43745;BME280;29359;53.048;8.732;2023-08-01T08:54:05;99722.41;;;17.83;94.09
43745;BME280;29359;53.048;8.732;2023-08-01T08:56:08;99727.28;;;17.89;93.22
43745;BME280;29359;53.048;8.732;2023-08-01T08:58:12;99722.06;;;17.87;91.90
43745;BME280;29359;53.048;8.732;2023-08-01T09:00:15;99724.97;;;17.84;91.31
43745;BME280;29359;53.048;8.732;2023-08-01T09:02:23;99728.00;;;17.80;89.60
43745;BME280;29359;53.048;8.732;2023-08-01T09:04:27;99721.22;;;17.87;89.06
43745;BME280;29359;53.048;8.732;2023-08-01T09:06:31;99732.44;;;18.03;89.90
43745;BME280;29359;53.048;8.732;2023-08-01T09:08:35;99720.91;;;18.14;88.14
43745;BME280;29359;53.048;8.732;2023-08-01T09:10:39;99722.63;;;18.15;87.37
43745;BME280;29359;53.048;8.732;2023-08-01T09:12:42;99723.34;;;18.17;87.74
43745;BME280;29359;53.048;8.732;2023-08-01T09:14:45;99725.78;;;18.20;88.22
43745;BME280;29359;53.048;8.732;2023-08-01T09:16:49;99717.44;;;18.25;87.50
43745;BME280;29359;53.048;8.732;2023-08-01T09:18:53;99720.25;;;18.34;85.97
43745;BME280;29359;53.048;8.732;2023-08-01T09:20:57;99720.25;;;18.45;85.48
43745;BME280;29359;53.048;8.732;2023-08-01T09:23:08;99718.44;;;18.57;83.34
43745;BME280;29359;53.048;8.732;2023-08-01T09:25:12;99709.63;;;18.68;82.03
43745;BME280;29359;53.048;8.732;2023-08-01T09:27:15;99711.06;;;18.72;82.38
43745;BME280;29359;53.048;8.732;2023-08-01T09:29:17;99707.06;;;18.77;82.03
43745;BME280;29359;53.048;8.732;2023-08-01T09:31:26;99705.59;;;18.85;81.93
43745;BME280;29359;53.048;8.732;2023-08-01T09:33:38;99709.22;;;18.95;81.76
43745;BME280;29359;53.048;8.732;2023-08-01T09:35:42;99705.94;;;18.91;81.48
43745;BME280;29359;53.048;8.732;2023-08-01T09:37:47;99705.94;;;18.91;82.25
43745;BME280;29359;53.048;8.732;2023-08-01T09:39:53;99705.59;;;18.85;81.32
43745;BME280;29359;53.048;8.732;2023-08-01T09:41:56;99702.06;;;18.73;81.02
43745;BME280;29359;53.048;8.732;2023-08-01T09:43:59;99711.13;;;18.59;80.50
43745;BME280;29359;53.048;8.732;2023-08-01T09:46:02;99715.38;;;18.39;79.83
43745;BME280;29359;53.048;8.732;2023-08-01T09:48:05;99716.22;;;18.29;79.92
43745;BME280;29359;53.048;8.732;2023-08-01T09:50:09;99714.16;;;18.32;79.37
43745;BME280;29359;53.048;8.732;2023-08-01T09:52:13;99708.22;;;18.40;80.60
43745;BME280;29359;53.048;8.732;2023-08-01T09:54:16;99701.66;;;18.55;80.71
43745;BME280;29359;53.048;8.732;2023-08-01T09:56:20;99708.03;;;18.76;81.05
43745;BME280;29359;53.048;8.732;2023-08-01T09:58:32;99709.47;;;18.80;80.88
43745;BME280;29359;53.048;8.732;2023-08-01T10:00:34;99709.75;;;18.66;82.08
43745;BME280;29359;53.048;8.732;2023-08-01T10:02:38;99711.13;;;18.48;84.09
43745;BME280;29359;53.048;8.732;2023-08-01T10:04:46;99720.97;;;18.25;84.71
43745;BME280;29359;53.048;8.732;2023-08-01T10:06:54;99717.75;;;18.09;84.95
43745;BME280;29359;53.048;8.732;2023-08-01T10:09:00;99708.75;;;17.99;85.30
43745;BME280;29359;53.048;8.732;2023-08-01T10:11:04;99699.53;;;18.03;86.75
43745;BME280;29359;53.048;8.732;2023-08-01T10:13:06;99700.88;;;18.19;86.59
43745;BME280;29359;53.048;8.732;2023-08-01T10:15:09;99711.97;;;18.37;85.52
43745;BME280;29359;53.048;8.732;2023-08-01T10:17:14;99701.78;;;18.53;83.84
43745;BME280;29359;53.048;8.732;2023-08-01T10:19:19;99700.22;;;18.62;81.81
43745;BME280;29359;53.048;8.732;2023-08-01T10:21:22;99705.66;;;18.61;80.19
43745;BME280;29359;53.048;8.732;2023-08-01T10:23:25;99698.91;;;18.68;82.78
43745;BME280;29359;53.048;8.732;2023-08-01T10:25:30;99708.63;;;18.80;80.87
43745;BME280;29359;53.048;8.732;2023-08-01T10:27:33;99703.50;;;18.88;79.81
43745;BME280;29359;53.048;8.732;2023-08-01T10:29:37;99703.13;;;18.93;79.23
43745;BME280;29359;53.048;8.732;2023-08-01T10:31:50;99719.91;;;18.95;79.44
43745;BME280;29359;53.048;8.732;2023-08-01T10:34:03;99707.41;;;18.95;79.59
43745;BME280;29359;53.048;8.732;2023-08-01T10:36:17;99708.75;;;18.90;78.82
43745;BME280;29359;53.048;8.732;2023-08-01T10:38:20;58104.44;;;-141.27;100.00
43745;BME280;29359;53.048;8.732;2023-08-01T10:40:34;58104.44;;;-141.27;100.00
43745;BME280;29359;53.048;8.732;2023-08-01T10:42:39;58104.44;;;-141.27;100.00
43745;BME280;29359;53.048;8.732;2023-08-01T10:44:45;58104.44;;;-141.27;100.00
43745;BME280;29359;53.048;8.732;2023-08-01T10:46:49;58104.44;;;-141.27;100.00
43745;BME280;29359;53.048;8.732;2023-08-01T10:48:52;58104.44;;;-141.27;100.00